Time;durP1;ratioP1;P1;durP2;ratioP2;P2;SDS_P1;SDS_P2;PMS_P1;PMS_P2;Temp;Humidity;BMP_temperature;BMP_pressure;BME280_temperature;BME280_humidity;BME280_pressure;Samples;Min_cycle;Max_cycle;Signal;HPM_P1;HPM_P2
2022/12/19 00:02:24;;;;;;;35.80;24.97;;;2.10;99.90;;;;;;5117698;28;20270;-47
2022/12/19 00:04:50;;;;;;;38.47;26.17;;;2.10;99.90;;;;;;5117057;28;20184;-49
2022/12/19 00:07:15;;;;;;;37.90;24.07;;;2.10;99.90;;;;;;5117855;28;20287;-48
2022/12/19 00:09:41;;;;;;;36.13;24.73;;;2.10;99.90;;;;;;5099981;28;20454;-49
2022/12/19 00:12:09;;;;;;;37.90;24.83;;;2.10;99.90;;;;;;5117626;28;20274;-48
2022/12/19 00:14:35;;;;;;;39.30;24.80;;;2.20;99.90;;;;;;5100620;28;20183;-48
2022/12/19 00:17:01;;;;;;;35.20;23.27;;;2.20;99.90;;;;;;5118629;28;20904;-48
2022/12/19 00:19:26;;;;;;;38.70;24.17;;;2.20;99.90;;;;;;5118753;28;20254;-47
2022/12/19 00:21:52;;;;;;;37.80;23.93;;;2.20;99.90;;;;;;5118826;28;20179;-47
2022/12/19 00:24:17;;;;;;;43.27;25.30;;;2.20;95.70;;;;;;5119142;28;20179;-48
2022/12/19 00:26:43;;;;;;;39.80;26.47;;;2.20;44.40;;;;;;5118961;28;20275;-47
2022/12/19 00:29:09;;;;;;;38.27;25.83;;;2.30;22.60;;;;;;5118443;28;20244;-48
2022/12/19 00:31:35;;;;;;;39.37;24.70;;;2.30;2.10;;;;;;5118629;28;20186;-48
2022/12/19 00:34:01;;;;;;;38.70;25.10;;;2.30;2.80;;;;;;5118020;28;20228;-48
2022/12/19 00:36:29;;;;;;;40.83;26.60;;;2.30;6.40;;;;;;5118709;28;20839;-47
2022/12/19 00:38:56;;;;;;;37.80;25.03;;;2.30;1.00;;;;;;5116093;28;20469;-47
2022/12/19 00:41:30;;;;;;;35.27;24.77;;;2.30;3.90;;;;;;5113716;28;20406;-49
2022/12/19 00:44:06;;;;;;;36.50;25.50;;;2.30;4.10;;;;;;5115541;28;20563;-48
2022/12/19 00:46:33;;;;;;;37.50;24.20;;;2.30;1.00;;;;;;5115225;28;20401;-48
2022/12/19 00:48:59;;;;;;;32.70;23.77;;;2.30;5.60;;;;;;5115510;28;20514;-48
2022/12/19 00:51:27;;;;;;;40.30;25.10;;;2.30;19.60;;;;;;5116935;28;20803;-48
2022/12/19 00:53:54;;;;;;;33.73;22.70;;;2.30;34.00;;;;;;5116104;28;20727;-48
2022/12/19 00:56:22;;;;;;;39.53;24.20;;;2.30;54.70;;;;;;5116844;28;20417;-47
2022/12/19 00:58:48;;;;;;;34.27;24.40;;;2.30;85.30;;;;;;5099279;28;20472;-46
2022/12/19 01:01:20;;;;;;;36.50;23.80;;;2.30;86.20;;;;;;5117517;28;20429;-47
2022/12/19 01:03:46;;;;;;;33.07;22.57;;;2.40;94.00;;;;;;5099781;28;20251;-47
2022/12/19 01:06:11;;;;;;;36.07;24.57;;;2.40;99.90;;;;;;5116034;28;20449;-48
2022/12/19 01:08:37;;;;;;;33.83;24.00;;;2.40;99.90;;;;;;5097946;28;20450;-47
2022/12/19 01:11:04;;;;;;;36.27;23.37;;;2.40;99.90;;;;;;5117738;28;20871;-48
2022/12/19 01:13:31;;;;;;;35.10;23.30;;;2.40;99.90;;;;;;5117545;28;20216;-47
2022/12/19 01:16:05;;;;;;;32.90;22.63;;;2.40;99.90;;;;;;5117989;28;20455;-47
2022/12/19 01:18:31;;;;;;;34.10;23.67;;;2.40;99.90;;;;;;5117648;28;20469;-50
2022/12/19 01:21:01;;;;;;;33.77;23.83;;;2.40;99.90;;;;;;5117662;28;20428;-48
2022/12/19 01:23:27;;;;;;;37.90;24.40;;;2.40;99.90;;;;;;5118472;28;20172;-48
2022/12/19 01:25:54;;;;;;;36.57;23.43;;;2.40;99.90;;;;;;5117616;28;20841;-47
2022/12/19 01:28:19;;;;;;;31.93;22.03;;;2.40;99.90;;;;;;5117928;28;20235;-48
2022/12/19 01:30:45;;;;;;;33.13;24.00;;;2.50;99.90;;;;;;5118214;28;20790;-50
2022/12/19 01:33:12;;;;;;;34.83;24.10;;;2.50;99.90;;;;;;5117505;28;20180;-49
2022/12/19 01:35:38;;;;;;;34.47;23.60;;;2.50;99.90;;;;;;5116731;28;20542;-46
2022/12/19 01:38:04;;;;;;;35.27;23.37;;;2.50;99.90;;;;;;5117860;28;20453;-48
2022/12/19 01:40:30;;;;;;;32.20;21.77;;;2.50;99.90;;;;;;5117122;28;20546;-48
2022/12/19 01:42:55;;;;;;;25.43;15.50;;;2.50;99.90;;;;;;5117734;28;20425;-47
2022/12/19 01:45:25;;;;;;;26.37;17.40;;;2.80;99.90;;;;;;5116724;28;20212;-47
2022/12/19 01:48:28;;;;;;;34.80;24.93;;;3.00;99.90;;;;;;5117169;28;20179;-46
2022/12/19 01:50:57;;;;;;;33.97;22.17;;;3.10;1.00;;;;;;5096655;28;20720;-48
2022/12/19 01:53:29;;;;;;;34.63;23.60;;;3.00;1.00;;;;;;5116960;28;20417;-47
2022/12/19 01:55:55;;;;;;;34.37;22.30;;;3.00;16.90;;;;;;5099493;28;20461;-49
2022/12/19 01:58:21;;;;;;;33.13;22.57;;;3.00;1.00;;;;;;5117450;28;20921;-48
2022/12/19 02:00:47;;;;;;;33.33;22.17;;;2.90;99.90;;;;;;5117437;28;20361;-47
2022/12/19 02:03:21;;;;;;;31.80;20.73;;;2.90;1.00;;;;;;5117823;28;20856;-47
2022/12/19 02:05:47;;;;;;;32.50;21.83;;;2.90;1.00;;;;;;5117710;28;20179;-49
2022/12/19 02:08:13;;;;;;;32.60;22.57;;;2.80;99.90;;;;;;5099679;28;20857;-50
2022/12/19 02:10:39;;;;;;;32.07;20.80;;;2.80;99.90;;;;;;5099392;28;20575;-47
2022/12/19 02:13:05;;;;;;;36.80;24.10;;;2.80;66.10;;;;;;5117445;28;20457;-46
2022/12/19 02:15:35;;;;;;;30.93;20.37;;;2.80;1.00;;;;;;5099670;28;20424;-49
2022/12/19 02:18:03;;;;;;;34.30;20.97;;;2.80;1.00;;;;;;5099804;28;20486;-47
2022/12/19 02:20:50;;;;;;;32.77;21.30;;;2.80;1.00;;;;;;5117800;28;20406;-47
2022/12/19 02:23:54;;;;;;;30.20;20.97;;;2.80;1.00;;;;;;5103116;28;20429;-47
2022/12/19 02:26:56;;;;;;;31.97;21.83;;;2.80;1.00;;;;;;5101911;28;20745;-50
2022/12/19 02:29:25;;;;;;;32.97;21.57;;;2.90;1.00;;;;;;5120886;28;20409;-49
2022/12/19 02:32:19;;;;;;;30.50;21.63;;;2.90;1.00;;;;;;5103163;28;20444;-47
2022/12/19 02:35:05;;;;;;;33.43;22.20;;;2.90;99.90;;;;;;5103256;28;20462;-48
2022/12/19 02:37:33;;;;;;;31.67;21.20;;;2.90;99.90;;;;;;5120810;28;20439;-46
2022/12/19 02:40:12;;;;;;;32.13;22.67;;;2.90;99.90;;;;;;5102918;28;20410;-46
2022/12/19 02:42:41;;;;;;;35.83;22.30;;;2.90;99.90;;;;;;5120775;28;20421;-49
2022/12/19 02:45:09;;;;;;;35.37;21.90;;;2.90;99.90;;;;;;5085968;28;20541;-49
2022/12/19 02:47:36;;;;;;;32.07;19.77;;;2.90;99.90;;;;;;5102678;28;20532;-48
2022/12/19 02:50:03;;;;;;;34.77;23.77;;;2.90;1.00;;;;;;5102367;28;20452;-46
2022/12/19 02:52:28;;;;;;;33.13;22.43;;;2.90;1.00;;;;;;5120812;28;20807;-49
2022/12/19 02:54:57;;;;;;;32.83;21.67;;;2.90;1.00;;;;;;5120493;28;20683;-47
2022/12/19 02:57:38;;;;;;;29.27;21.30;;;2.90;1.00;;;;;;5119831;28;20278;-47
2022/12/19 03:00:04;;;;;;;32.57;22.30;;;2.90;1.00;;;;;;5120405;28;20814;-48
2022/12/19 03:02:30;;;;;;;32.70;22.10;;;3.00;1.00;;;;;;5101979;28;20425;-50
2022/12/19 03:05:13;;;;;;;31.10;20.50;;;2.90;1.00;;;;;;5120781;28;20421;-49
2022/12/19 03:07:47;;;;;;;28.07;18.97;;;3.00;1.00;;;;;;5120129;28;20562;-48
2022/12/19 03:10:30;;;;;;;28.07;20.80;;;3.00;1.00;;;;;;5102401;28;20416;-49
2022/12/19 03:13:00;;;;;;;30.93;21.63;;;3.00;1.00;;;;;;5107962;28;20484;-50
2022/12/19 03:15:26;;;;;;;34.47;22.60;;;3.00;1.00;;;;;;5118681;28;20406;-48
2022/12/19 03:17:56;;;;;;;30.43;21.10;;;3.00;1.00;;;;;;5120259;28;20526;-48
2022/12/19 03:20:27;;;;;;;32.50;20.97;;;3.00;1.00;;;;;;5118936;28;20517;-50
2022/12/19 03:22:52;;;;;;;31.80;21.00;;;3.00;1.00;;;;;;5119588;28;20540;-47
2022/12/19 03:25:20;;;;;;;30.37;21.20;;;3.00;1.00;;;;;;5119940;28;20584;-51
2022/12/19 03:27:47;;;;;;;31.20;20.47;;;3.00;1.00;;;;;;5118979;28;20252;-48
2022/12/19 03:30:14;;;;;;;30.13;20.37;;;3.00;1.00;;;;;;5118911;28;21028;-49
2022/12/19 03:32:41;;;;;;;32.67;21.40;;;3.00;1.00;;;;;;5118264;28;20429;-50
2022/12/19 03:35:15;;;;;;;32.60;20.37;;;3.00;1.00;;;;;;5119026;28;20417;-49
2022/12/19 03:37:42;;;;;;;29.27;19.77;;;3.00;1.00;;;;;;5118893;28;20436;-49
2022/12/19 03:40:10;;;;;;;27.50;18.60;;;3.10;1.00;;;;;;5118705;28;20413;-48
2022/12/19 03:45:38;;;;;;;27.60;19.47;;;3.10;1.00;;;;;;5118564;28;20883;-52
2022/12/19 03:48:11;;;;;;;30.67;18.60;;;3.10;1.00;;;;;;5119473;28;20432;-47
2022/12/19 03:50:55;;;;;;;30.90;19.00;;;3.10;1.00;;;;;;5120018;28;20448;-49
2022/12/19 03:53:34;;;;;;;28.53;18.17;;;3.10;1.00;;;;;;5119062;28;20498;-47
2022/12/19 03:56:09;;;;;;;30.30;20.07;;;3.10;1.00;;;;;;5119033;28;20470;-48
2022/12/19 03:58:39;;;;;;;29.70;19.37;;;3.10;1.00;;;;;;5117969;28;20461;-48
2022/12/19 04:01:05;;;;;;;28.00;19.80;;;3.10;1.00;;;;;;5118753;28;20451;-48
2022/12/19 04:03:31;;;;;;;30.17;19.20;;;3.20;1.00;;;;;;5116228;28;20428;-49
2022/12/19 04:05:58;;;;;;;29.50;19.50;;;3.20;1.00;;;;;;5114570;28;20500;-49
2022/12/19 04:08:24;;;;;;;25.83;18.47;;;3.20;1.00;;;;;;5115728;28;20788;-48
2022/12/19 04:10:53;;;;;;;28.43;18.70;;;3.20;1.00;;;;;;5112929;28;20512;-49
2022/12/19 04:13:39;;;;;;;27.60;18.83;;;3.20;1.00;;;;;;5113470;28;20271;-48
2022/12/19 04:16:49;;;;;;;26.00;18.13;;;3.20;1.00;;;;;;5112413;28;20414;-47
2022/12/19 04:19:28;;;;;;;28.50;18.60;;;3.20;1.00;;;;;;5030738;28;20567;-48
2022/12/19 04:22:01;;;;;;;29.27;18.37;;;3.20;1.00;;;;;;5033606;28;20720;-47
2022/12/19 04:24:32;;;;;;;28.13;17.87;;;3.20;1.00;;;;;;5066264;28;20414;-49
2022/12/19 04:26:58;;;;;;;27.33;18.50;;;3.20;1.00;;;;;;5099648;28;20429;-48
2022/12/19 04:29:25;;;;;;;27.50;19.13;;;3.20;1.00;;;;;;5117856;28;20421;-49
2022/12/19 04:31:51;;;;;;;28.33;17.93;;;3.30;1.00;;;;;;5099476;28;20433;-48
2022/12/19 04:34:19;;;;;;;27.40;18.40;;;3.30;1.00;;;;;;5100023;28;20428;-47
2022/12/19 04:36:45;;;;;;;28.47;17.67;;;3.30;1.00;;;;;;5098833;28;20429;-48
2022/12/19 04:39:10;;;;;;;29.20;20.10;;;3.30;16.90;;;;;;5098986;28;20472;-46
2022/12/19 04:41:36;;;;;;;27.43;18.23;;;3.30;58.10;;;;;;5099127;28;20203;-47
2022/12/19 04:44:01;;;;;;;25.70;17.43;;;3.40;96.90;;;;;;5114669;28;20490;-46
2022/12/19 04:46:27;;;;;;;26.67;18.57;;;3.40;99.90;;;;;;5114647;28;20286;-48
2022/12/19 04:48:53;;;;;;;26.70;17.80;;;3.40;99.90;;;;;;5114745;28;20270;-49
2022/12/19 04:51:18;;;;;;;24.33;15.83;;;3.40;99.90;;;;;;5114464;28;20199;-50
2022/12/19 04:53:44;;;;;;;26.73;17.93;;;3.40;99.90;;;;;;5114822;28;20516;-48
2022/12/19 04:56:10;;;;;;;25.47;16.50;;;3.40;99.90;;;;;;5097037;28;20172;-49
2022/12/19 04:58:35;;;;;;;23.50;16.33;;;3.50;99.90;;;;;;5115903;28;20200;-47
2022/12/19 05:01:05;;;;;;;26.20;18.37;;;3.50;99.90;;;;;;5098854;28;20180;-49
2022/12/19 05:03:31;;;;;;;24.73;16.63;;;3.50;1.00;;;;;;5116333;28;20206;-48
2022/12/19 05:06:11;;;;;;;22.37;16.20;;;3.50;1.00;;;;;;5115395;28;20445;-49
2022/12/19 05:08:38;;;;;;;22.37;15.53;;;3.50;1.00;;;;;;5114899;28;20417;-49
2022/12/19 05:11:04;;;;;;;26.57;18.03;;;3.50;1.00;;;;;;5114744;28;20642;-48
2022/12/19 05:13:30;;;;;;;23.40;16.20;;;3.50;1.00;;;;;;5114650;28;20525;-47
2022/12/19 05:16:01;;;;;;;23.77;16.40;;;3.50;1.00;;;;;;5114811;28;20413;-48
2022/12/19 05:18:27;;;;;;;25.73;16.93;;;3.60;7.40;;;;;;5114554;28;20485;-48
2022/12/19 05:20:52;;;;;;;24.47;16.73;;;3.60;5.20;;;;;;5115212;28;20417;-48
2022/12/19 05:23:19;;;;;;;24.50;16.73;;;3.60;1.00;;;;;;5115910;28;20432;-50
2022/12/19 05:25:45;;;;;;;24.30;17.37;;;3.60;35.90;;;;;;5114874;28;20175;-48
2022/12/19 05:28:10;;;;;;;23.80;17.67;;;3.60;89.20;;;;;;5095551;28;20429;-49
2022/12/19 05:30:36;;;;;;;24.33;16.47;;;3.60;99.90;;;;;;5112282;28;20425;-49
2022/12/19 05:33:01;;;;;;;21.80;15.53;;;3.60;99.90;;;;;;5111398;28;20274;-51
2022/12/19 05:35:27;;;;;;;20.53;15.23;;;3.60;99.90;;;;;;5112475;28;20238;-50
2022/12/19 05:37:53;;;;;;;23.73;17.67;;;3.70;99.90;;;;;;5112907;28;20218;-48
2022/12/19 05:40:18;;;;;;;24.33;17.80;;;3.70;99.90;;;;;;5112941;28;20167;-49
2022/12/19 05:42:44;;;;;;;23.17;17.50;;;3.70;99.90;;;;;;5112425;28;20181;-48
2022/12/19 05:45:10;;;;;;;26.27;18.37;;;3.70;99.90;;;;;;5115039;28;20195;-47
2022/12/19 05:47:35;;;;;;;25.23;17.07;;;3.70;99.90;;;;;;5114643;28;20179;-51
2022/12/19 05:50:01;;;;;;;27.50;18.40;;;3.70;99.90;;;;;;5113407;28;20287;-49
2022/12/19 05:52:27;;;;;;;28.13;17.87;;;3.70;99.90;;;;;;5112729;28;20172;-49
2022/12/19 05:54:53;;;;;;;25.27;17.23;;;3.70;99.90;;;;;;5094712;28;20178;-48
2022/12/19 05:57:18;;;;;;;26.03;18.23;;;3.70;99.90;;;;;;5117390;28;20839;-49
2022/12/19 05:59:44;;;;;;;26.20;18.17;;;3.70;99.90;;;;;;5117175;28;20199;-50
2022/12/19 06:02:09;;;;;;;25.60;17.60;;;3.70;99.90;;;;;;5118105;28;20176;-50
2022/12/19 06:04:38;;;;;;;25.17;16.67;;;3.70;99.90;;;;;;5118091;28;20176;-48
2022/12/19 06:07:04;;;;;;;24.43;16.30;;;3.80;99.90;;;;;;5118489;28;20180;-48
2022/12/19 06:09:37;;;;;;;23.80;15.90;;;3.80;99.90;;;;;;5118563;28;20559;-47
2022/12/19 06:12:03;;;;;;;24.23;16.97;;;3.80;99.90;;;;;;5117376;28;20434;-47
2022/12/19 06:14:28;;;;;;;24.90;16.50;;;3.80;99.90;;;;;;5114625;28;20527;-49
2022/12/19 06:16:54;;;;;;;21.03;16.17;;;3.80;99.90;;;;;;5113461;28;20271;-48
2022/12/19 06:19:20;;;;;;;23.10;15.50;;;3.80;99.90;;;;;;5113215;28;20574;-48
2022/12/19 06:21:45;;;;;;;23.13;15.67;;;3.80;99.90;;;;;;5114223;28;20180;-49
2022/12/19 06:24:11;;;;;;;22.10;16.30;;;3.90;99.90;;;;;;5114641;28;20164;-49
2022/12/19 06:26:37;;;;;;;23.70;16.80;;;3.90;99.90;;;;;;5113319;28;20183;-47
2022/12/19 06:29:02;;;;;;;21.17;16.20;;;3.90;99.90;;;;;;5112937;28;20191;-48
2022/12/19 06:31:28;;;;;;;20.50;14.73;;;3.90;99.90;;;;;;5111447;28;20180;-47
2022/12/19 06:33:54;;;;;;;22.70;15.20;;;3.90;99.90;;;;;;5115062;28;20254;-48
2022/12/19 06:36:22;;;;;;;22.33;15.87;;;3.90;99.90;;;;;;5114923;28;20187;-47
2022/12/19 06:38:49;;;;;;;22.30;16.80;;;3.90;99.90;;;;;;5114643;28;20469;-49
2022/12/19 06:44:03;;;;;;;24.97;16.77;;;3.90;99.90;;;;;;5094944;28;20775;-47
2022/12/19 06:46:29;;;;;;;21.17;15.63;;;3.90;99.90;;;;;;5094037;28;20430;-47
2022/12/19 06:48:55;;;;;;;20.90;15.13;;;3.90;99.90;;;;;;5093842;28;20426;-48
2022/12/19 06:51:21;;;;;;;20.90;15.40;;;3.90;99.90;;;;;;5075749;28;20430;-51
2022/12/19 06:53:46;;;;;;;22.03;15.87;;;4.00;99.90;;;;;;5091814;28;20169;-48
2022/12/19 06:56:13;;;;;;;22.13;15.97;;;4.00;1.00;;;;;;5093148;28;20427;-47
2022/12/19 06:58:39;;;;;;;24.20;17.07;;;4.00;1.00;;;;;;5092495;28;20196;-47
2022/12/19 07:01:05;;;;;;;22.80;15.33;;;4.00;1.00;;;;;;5092305;28;20410;-49
2022/12/19 07:03:40;;;;;;;22.07;16.93;;;4.00;1.00;;;;;;5092760;28;20522;-50
2022/12/19 07:06:06;;;;;;;19.40;14.10;;;4.00;1.00;;;;;;5092330;28;20172;-49
2022/12/19 07:08:32;;;;;;;23.27;17.23;;;4.00;1.00;;;;;;5095003;28;20410;-47
2022/12/19 07:10:58;;;;;;;25.00;16.43;;;4.00;1.00;;;;;;5095151;28;20425;-48
2022/12/19 07:13:23;;;;;;;22.57;15.87;;;4.00;1.00;;;;;;5094861;28;20564;-49
2022/12/19 07:15:50;;;;;;;21.27;16.60;;;4.00;1.00;;;;;;5094884;28;20180;-50
2022/12/19 07:18:16;;;;;;;21.33;16.30;;;4.00;1.00;;;;;;5077764;28;20212;-48
2022/12/19 07:20:41;;;;;;;23.87;16.57;;;4.00;1.00;;;;;;5096500;28;20425;-49
2022/12/19 07:23:09;;;;;;;24.73;17.50;;;4.00;1.00;;;;;;5077876;28;20222;-47
2022/12/19 07:25:36;;;;;;;22.33;17.17;;;4.00;1.00;;;;;;5097521;28;20425;-47
2022/12/19 07:28:03;;;;;;;22.77;16.60;;;4.10;1.00;;;;;;5096674;28;20533;-48
2022/12/19 07:30:29;;;;;;;26.50;16.50;;;4.10;1.00;;;;;;5079719;28;20425;-49
2022/12/19 07:32:55;;;;;;;21.97;18.00;;;4.10;1.00;;;;;;5094813;28;20537;-48
2022/12/19 07:35:27;;;;;;;24.10;17.47;;;4.10;1.00;;;;;;5060212;28;20244;-50
2022/12/19 07:38:00;;;;;;;24.77;17.37;;;4.20;1.00;;;;;;5077733;28;20510;-49
2022/12/19 07:40:26;;;;;;;23.40;16.50;;;4.20;1.00;;;;;;5095023;28;20455;-46
2022/12/19 07:42:52;;;;;;;24.37;17.30;;;4.30;1.00;;;;;;5093576;28;20507;-47
2022/12/19 07:45:17;;;;;;;24.20;17.27;;;4.30;1.00;;;;;;5092719;28;20165;-47
2022/12/19 07:47:43;;;;;;;21.63;15.90;;;4.30;1.00;;;;;;5093874;28;20602;-47
2022/12/19 07:50:08;;;;;;;23.43;17.13;;;4.30;99.90;;;;;;5093126;28;20602;-49
2022/12/19 07:52:34;;;;;;;22.53;16.60;;;4.40;99.90;;;;;;5093188;28;20207;-47
2022/12/19 07:55:00;;;;;;;23.30;16.10;;;4.50;99.90;;;;;;5075371;28;20177;-46
2022/12/19 07:57:25;;;;;;;22.77;16.07;;;4.50;99.90;;;;;;5093928;28;20176;-47
2022/12/19 07:59:51;;;;;;;23.93;16.23;;;4.60;99.90;;;;;;5091730;28;20438;-49
2022/12/19 08:02:17;;;;;;;23.20;16.73;;;4.60;99.90;;;;;;5076242;28;20211;-49
2022/12/19 08:04:43;;;;;;;21.90;15.83;;;4.70;99.90;;;;;;5095684;28;20419;-47
2022/12/19 08:07:08;;;;;;;21.27;15.83;;;4.70;22.40;;;;;;5075643;28;20188;-48
2022/12/19 08:09:34;;;;;;;22.20;15.87;;;4.80;1.00;;;;;;5094214;28;20410;-48
2022/12/19 08:12:00;;;;;;;20.43;15.07;;;4.80;1.00;;;;;;5093825;28;20588;-47
2022/12/19 08:14:25;;;;;;;21.40;15.90;;;4.90;1.00;;;;;;5088561;28;20280;-48
2022/12/19 08:16:51;;;;;;;17.50;13.93;;;4.90;1.00;;;;;;5087390;28;20185;-47
2022/12/19 08:19:17;;;;;;;21.17;15.57;;;5.00;1.00;;;;;;5089589;28;20535;-46
2022/12/19 08:21:43;;;;;;;22.37;15.27;;;5.10;99.90;;;;;;5089955;28;20438;-46
2022/12/19 08:24:09;;;;;;;21.43;16.30;;;5.10;99.90;;;;;;5090221;28;20441;-49
2022/12/19 08:26:34;;;;;;;21.50;16.00;;;5.20;99.90;;;;;;5091481;28;20208;-50
2022/12/19 08:29:00;;;;;;;19.10;14.30;;;5.20;99.90;;;;;;5080713;28;20615;-48
2022/12/19 08:31:27;;;;;;;19.90;14.47;;;5.40;99.90;;;;;;5113297;28;20172;-47
2022/12/19 08:33:54;;;;;;;19.67;14.80;;;5.50;99.90;;;;;;5114254;28;20585;-47
2022/12/19 08:36:20;;;;;;;20.13;15.60;;;5.60;8.30;;;;;;5111875;28;20437;-46
2022/12/19 08:38:46;;;;;;;20.30;14.73;;;5.70;1.00;;;;;;5110783;28;20529;-47
2022/12/19 08:41:13;;;;;;;20.60;15.20;;;5.70;1.00;;;;;;5111791;28;20413;-47
2022/12/19 08:43:39;;;;;;;8.97;5.60;;;5.80;1.00;;;;;;5095334;28;20425;-48
2022/12/19 08:46:05;;;;;;;10.90;6.50;;;7.10;1.00;;;;;;5114806;28;20831;-48
2022/12/19 08:48:32;;;;;;;11.43;7.13;;;8.60;1.00;;;;;;5114644;28;20176;-48
2022/12/19 08:51:05;;;;;;;10.93;7.10;;;9.70;1.00;;;;;;5116970;28;20420;-47
2022/12/19 08:53:35;;;;;;;9.40;7.70;;;10.50;99.90;;;;;;5115135;28;20429;-47
2022/12/19 08:56:07;;;;;;;9.63;7.70;;;11.10;99.90;;;;;;5113893;28;20880;-49
2022/12/19 08:58:32;;;;;;;8.27;6.57;;;11.80;62.90;;;;;;5110685;28;20550;-46
2022/12/19 09:01:03;;;;;;;8.87;6.73;;;12.40;1.00;;;;;;5094479;28;20405;-46
2022/12/19 09:03:30;;;;;;;13.30;10.47;;;12.30;99.90;;;;;;5112422;28;20764;-45
2022/12/19 09:06:00;;;;;;;15.50;11.70;;;11.90;99.90;;;;;;5111234;28;20424;-47
2022/12/19 09:08:27;;;;;;;13.30;11.10;;;11.50;46.90;;;;;;5110238;28;20444;-48
2022/12/19 09:11:13;;;;;;;15.40;12.37;;;11.00;1.00;;;;;;5109371;28;20424;-46
2022/12/19 09:13:40;;;;;;;15.43;11.50;;;10.60;1.00;;;;;;5109537;28;20461;-46
2022/12/19 09:16:05;;;;;;;15.80;12.50;;;10.30;99.90;;;;;;5112390;28;20463;-46
2022/12/19 09:18:31;;;;;;;17.57;13.17;;;10.10;99.90;;;;;;5110874;28;20488;-47
2022/12/19 09:20:58;;;;;;;17.27;13.20;;;10.10;99.90;;;;;;5111604;28;20236;-46
2022/12/19 09:23:27;;;;;;;14.73;13.20;;;10.10;90.80;;;;;;5113106;28;20830;-48
2022/12/19 09:25:54;;;;;;;15.30;11.83;;;10.20;1.00;;;;;;5112785;28;20402;-47
2022/12/19 09:28:20;;;;;;;16.83;13.37;;;10.30;1.00;;;;;;5113890;28;20414;-46
2022/12/19 09:30:56;;;;;;;16.40;12.73;;;10.50;99.90;;;;;;5114565;28;20413;-48
2022/12/19 09:33:22;;;;;;;14.70;12.63;;;11.00;99.90;;;;;;5117374;28;20353;-48
2022/12/19 09:35:52;;;;;;;17.50;13.90;;;11.80;51.20;;;;;;5118879;28;20410;-45
2022/12/19 09:38:18;;;;;;;18.07;13.67;;;12.40;1.00;;;;;;5117708;28;20302;-46
2022/12/19 09:41:06;;;;;;;14.07;12.40;;;12.60;1.00;;;;;;5117982;28;20401;-46
2022/12/19 09:44:00;;;;;;;14.07;12.40;;;12.50;1.00;;;;;;5118677;28;20851;-46
2022/12/19 09:46:57;;;;;;;14.13;11.47;;;12.30;1.00;;;;;;5118683;28;20477;-48
2022/12/19 09:49:35;;;;;;;13.53;11.53;;;12.10;1.00;;;;;;5116774;28;20733;-46
2022/12/19 09:52:12;;;;;;;15.50;11.97;;;11.90;1.00;;;;;;5099014;28;20440;-48
2022/12/19 09:54:52;;;;;;;12.83;10.83;;;11.80;1.00;;;;;;5116936;28;20447;-47
2022/12/19 09:57:21;;;;;;;11.90;10.70;;;11.60;1.00;;;;;;5117496;28;20417;-47
2022/12/19 09:59:59;;;;;;;14.40;11.00;;;11.50;1.00;;;;;;5114637;28;20473;-48
2022/12/19 10:02:37;;;;;;;14.07;11.33;;;11.40;1.00;;;;;;5097251;28;20528;-47
2022/12/19 10:05:12;;;;;;;11.33;9.70;;;11.40;1.00;;;;;;5114923;28;20492;-45
2022/12/19 10:07:38;;;;;;;13.00;11.23;;;11.40;1.00;;;;;;5115908;28;20411;-47
2022/12/19 10:10:04;;;;;;;12.10;10.40;;;11.40;1.00;;;;;;5116738;28;20921;-48
2022/12/19 10:12:49;;;;;;;12.87;10.80;;;11.40;1.00;;;;;;5115163;28;20227;-45
2022/12/19 10:15:32;;;;;;;10.80;9.27;;;11.40;1.00;;;;;;5115582;28;20740;-46
2022/12/19 10:18:16;;;;;;;17.17;6.47;;;11.40;1.00;;;;;;5116159;28;20429;-45
2022/12/19 10:21:12;;;;;;;11.93;4.97;;;11.40;99.90;;;;;;5115211;28;20413;-46
2022/12/19 10:23:53;;;;;;;8.67;4.60;;;12.40;99.90;;;;;;5097790;28;20418;-49
2022/12/19 10:26:22;;;;;;;5.97;4.90;;;13.50;1.00;;;;;;5096959;28;20425;-48
2022/12/19 10:29:14;;;;;;;6.47;5.07;;;14.40;99.90;;;;;;5097231;28;20425;-48
2022/12/19 10:31:58;;;;;;;9.07;5.50;;;15.20;1.00;;;;;;5098769;28;20611;-48
2022/12/19 10:34:32;;;;;;;9.43;5.37;;;15.80;99.90;;;;;;5114997;28;20415;-46
2022/12/19 10:37:00;;;;;;;8.50;5.70;;;16.60;1.00;;;;;;5115718;28;20421;-49
2022/12/19 10:39:32;;;;;;;7.10;5.70;;;17.20;1.00;;;;;;5098271;28;20533;-46
2022/12/19 10:42:14;;;;;;;6.70;6.10;;;17.70;1.00;;;;;;5096433;28;20439;-46
2022/12/19 10:44:43;;;;;;;9.70;8.23;;;18.10;1.00;;;;;;5116192;28;20436;-46
2022/12/19 10:47:14;;;;;;;10.27;9.27;;;18.10;1.00;;;;;;5096839;28;20442;-46
2022/12/19 10:49:39;;;;;;;10.70;9.60;;;17.80;1.00;;;;;;5115386;28;20679;-46
2022/12/19 10:52:07;;;;;;;11.63;10.53;;;17.40;1.00;;;;;;5114262;28;20445;-46
2022/12/19 10:54:38;;;;;;;10.70;9.60;;;17.10;1.00;;;;;;5095778;28;20168;-45
2022/12/19 10:57:36;;;;;;;11.00;9.90;;;16.70;1.00;;;;;;5114374;28;20461;-47
2022/12/19 11:00:05;;;;;;;11.23;10.10;;;16.30;1.00;;;;;;5056648;28;20616;-50
2022/12/19 11:02:36;;;;;;;11.27;9.50;;;16.10;1.00;;;;;;5115991;28;20437;-45
2022/12/19 11:05:22;;;;;;;9.97;8.97;;;16.10;1.00;;;;;;5115865;28;20436;-45
2022/12/19 11:07:59;;;;;;;11.30;9.67;;;16.10;1.00;;;;;;5115999;28;20440;-45
2022/12/19 11:10:49;;;;;;;10.87;9.77;;;16.10;1.00;;;;;;5117923;28;20429;-45
2022/12/19 11:13:34;;;;;;;10.23;9.20;;;16.30;1.00;;;;;;5072773;28;21034;-45
2022/12/19 11:16:05;;;;;;;16.20;13.57;;;16.50;1.00;;;;;;5118705;28;20846;-45
2022/12/19 11:18:40;;;;;;;31.63;22.80;;;16.90;1.00;;;;;;5116799;28;20476;-47
2022/12/19 11:21:13;;;;;;;37.17;25.90;;;17.80;1.00;;;;;;5118061;28;20411;-45
2022/12/19 11:24:00;;;;;;;38.20;27.07;;;19.10;1.00;;;;;;5117221;28;20422;-48
2022/12/19 11:26:40;;;;;;;26.50;21.10;;;20.20;1.00;;;;;;5109671;28;20470;-48
2022/12/19 11:29:27;;;;;;;25.33;20.23;;;20.80;1.00;;;;;;5116766;28;20425;-45
2022/12/19 11:31:59;;;;;;;18.63;15.60;;;21.00;1.00;;;;;;5098786;28;20425;-46
2022/12/19 11:34:28;;;;;;;17.83;14.60;;;21.00;1.00;;;;;;5117225;28;20418;-45
2022/12/19 11:37:23;;;;;;;14.87;13.27;;;20.60;1.00;;;;;;5098551;28;20493;-45
2022/12/19 11:39:57;;;;;;;12.40;11.03;;;20.30;1.00;;;;;;5098243;28;20457;-45
2022/12/19 11:42:55;;;;;;;14.17;12.43;;;20.00;1.00;;;;;;5098648;28;20453;-45
2022/12/19 11:45:47;;;;;;;12.50;11.20;;;19.50;1.00;;;;;;5082923;28;20427;-45
2022/12/19 11:48:16;;;;;;;9.70;8.80;;;19.40;1.00;;;;;;5096748;28;20507;-46
2022/12/19 11:51:12;;;;;;;10.47;8.63;;;19.20;1.00;;;;;;5096910;28;20414;-46
2022/12/19 11:53:54;;;;;;;8.30;7.50;;;19.00;1.00;;;;;;5116213;28;20500;-46
2022/12/19 11:56:22;;;;;;;10.87;9.77;;;18.80;1.00;;;;;;5114646;28;20749;-47
2022/12/19 11:58:52;;;;;;;10.03;9.03;;;18.70;1.00;;;;;;5095402;28;20563;-48
2022/12/19 12:01:52;;;;;;;9.50;8.60;;;18.70;1.00;;;;;;5097104;28;20434;-47
2022/12/19 12:04:45;;;;;;;9.97;8.63;;;18.80;1.00;;;;;;5077020;28;20419;-47
2022/12/19 12:07:11;;;;;;;9.50;8.60;;;18.80;1.00;;;;;;5095138;28;20424;-46
2022/12/19 12:09:49;;;;;;;9.40;8.50;;;18.80;1.00;;;;;;5075600;28;20951;-45
2022/12/19 12:13:05;;;;;;;8.77;7.97;;;18.80;1.00;;;;;;5094073;28;20605;-47
2022/12/19 12:15:49;;;;;;;10.70;9.27;;;19.30;1.00;;;;;;5050695;28;20418;-45
2022/12/19 12:18:36;;;;;;;9.93;9.03;;;19.70;1.00;;;;;;5071503;28;20608;-45
2022/12/19 12:21:22;;;;;;;9.90;8.83;;;19.90;1.00;;;;;;5090033;28;20813;-46
2022/12/19 12:23:59;;;;;;;9.37;8.47;;;20.00;1.00;;;;;;5091163;28;20851;-45
2022/12/19 12:26:43;;;;;;;9.33;8.43;;;20.40;1.00;;;;;;5073498;28;20442;-45
2022/12/19 12:29:26;;;;;;;9.60;8.70;;;20.50;1.00;;;;;;5094134;28;20440;-46
2022/12/19 12:32:24;;;;;;;8.67;7.87;;;20.10;1.00;;;;;;5099890;28;20482;-46
2022/12/19 12:35:22;;;;;;;10.27;9.20;;;19.30;1.00;;;;;;5102441;28;20511;-46
2022/12/19 12:37:53;;;;;;;10.10;9.10;;;18.60;1.00;;;;;;5071213;28;20430;-45
2022/12/19 12:40:50;;;;;;;9.10;8.20;;;18.00;1.00;;;;;;5097536;28;20482;-47
2022/12/19 12:43:34;;;;;;;10.40;8.47;;;17.40;1.00;;;;;;5111683;28;20416;-44
2022/12/19 12:46:07;;;;;;;9.20;8.40;;;17.10;1.00;;;;;;5091559;28;20423;-47
2022/12/19 12:48:39;;;;;;;9.70;8.20;;;17.00;1.00;;;;;;5072271;28;20450;-46
2022/12/19 12:51:06;;;;;;;9.20;8.37;;;17.10;1.00;;;;;;5070398;28;20466;-45
2022/12/19 12:53:37;;;;;;;13.43;9.10;;;17.20;1.00;;;;;;5089239;28;20418;-46
2022/12/19 12:56:05;;;;;;;10.90;9.87;;;17.50;1.00;;;;;;5087940;28;20414;-45
2022/12/19 12:58:44;;;;;;;11.27;10.17;;;17.70;1.00;;;;;;5079280;28;20468;-46
2022/12/19 13:01:29;;;;;;;10.03;9.03;;;17.70;1.00;;;;;;5073927;28;20431;-46
2022/12/19 13:04:12;;;;;;;9.13;8.30;;;17.60;1.00;;;;;;5094163;28;20422;-45
2022/12/19 13:06:40;;;;;;;9.30;8.30;;;17.50;1.00;;;;;;5071292;28;20525;-47
2022/12/19 13:09:15;;;;;;;10.20;9.17;;;17.30;1.00;;;;;;5082936;28;20492;-45
2022/12/19 13:14:49;;;;;;;8.80;7.90;;;16.90;1.00;;;;;;5098892;28;20452;-46